To NAV CANADA Home Page Login to a new session Search on AWWS site Feedback and Comments Disclaimer Vers la page française équivalente Tips FAQ What's new on the site To the Forecasts and Observations / NOTAM section To "File a Flight Plan" website Publications and other links Update of the User's profile FIC Telephone Numbers My Weather Data Folder Route Weather Data Regional Weather Data Local Weather Data To the Forecasts and Observations / NOTAM section
Request Generated 02/23/2017 at 20:47:06 UTC . Weather information available at that time is displayed.

METAR/TAF

SLAVE LAKE/AB    (show WxCam)

METAR CYZH 232000Z AUTO 35004KT 9SM FEW027 OVC085 M07/M09 A3004 RMK
SLP212=
METAR CYZH 231900Z AUTO VRB02KT 9SM FEW048 OVC085 M07/M09 A3005 RMK
SLP216=
METAR CYZH 231800Z AUTO 36004KT 9SM OVC085 M08/M09 A3006 RMK SLP220=

TAF CYZH 231842Z 2319/2407 36005KT P6SM BKN080
BECMG 2323/2401 30005KT BKN030
FM240200 30005KT P6SM BKN030
RMK FCST BASED ON AUTO OBS. NXT FCST BY 240100Z=
Your time UTC time
Weather data provided by Environment Canada and NAV CANADA